Time;durP1;ratioP1;P1;durP2;ratioP2;P2;SDS_P1;SDS_P2;PMS_P1;PMS_P2;Temp;Humidity;BMP_temperature;BMP_pressure;BME280_temperature;BME280_humidity;BME280_pressure;Samples;Min_cycle;Max_cycle;Signal;HPM_P1;HPM_P2
2021/03/08 00:00:32;;;;;;;;;;;1.10;99.90;;;;;;5031337;28;20353;-78
2021/03/08 00:02:58;;;;;;;;;;;1.00;99.90;;;;;;5033622;28;19904;-78
2021/03/08 00:05:23;;;;;;;;;;;1.10;99.90;;;;;;5033212;28;20000;-78
2021/03/08 00:07:49;;;;;;;;;;;1.10;99.90;;;;;;5033653;28;19952;-78
2021/03/08 00:10:16;;;;;;;;;;;1.10;99.90;;;;;;5033448;28;19955;-78
2021/03/08 00:12:43;;;;;;;;;;;1.10;99.90;;;;;;5033521;28;19909;-78
2021/03/08 00:15:08;;;;;;;;;;;1.00;99.90;;;;;;5027634;28;19913;-78
2021/03/08 00:17:34;;;;;;;;;;;1.00;99.90;;;;;;5033130;28;19955;-78
2021/03/08 00:19:59;;;;;;;;;;;1.00;99.90;;;;;;5033091;28;19928;-78
2021/03/08 00:22:25;;;;;;;;;;;1.00;99.90;;;;;;5033447;28;20381;-78
2021/03/08 00:24:51;;;;;;;;;;;0.90;99.90;;;;;;5033037;28;20431;-79
2021/03/08 00:27:16;;;;;;;;;;;0.90;99.90;;;;;;5033545;28;19905;-79
2021/03/08 00:29:42;;;;;;;;;;;0.90;99.90;;;;;;5034409;28;19959;-78
2021/03/08 00:32:08;;;;;;;;;;;0.90;99.90;;;;;;5042165;28;19901;-78
2021/03/08 00:34:34;;;;;;;;;;;1.00;99.90;;;;;;5052363;28;19920;-78
2021/03/08 00:36:59;;;;;;;;;;;0.90;99.90;;;;;;5048060;28;19948;-79
2021/03/08 00:39:25;;;;;;;;;;;0.80;99.90;;;;;;5047677;28;20379;-79
2021/03/08 00:41:50;;;;;;;;;;;0.80;99.90;;;;;;5043035;28;19909;-79
2021/03/08 00:44:16;;;;;;;;;;;0.80;99.90;;;;;;5040316;28;19914;-78
2021/03/08 00:46:42;;;;;;;;;;;0.90;99.90;;;;;;5033170;28;19916;-79
2021/03/08 00:49:07;;;;;;;;;;;0.90;99.90;;;;;;5032260;28;19999;-79
2021/03/08 00:51:33;;;;;;;;;;;0.80;99.90;;;;;;5032565;28;19909;-78
2021/03/08 00:53:58;;;;;;;;;;;0.80;99.90;;;;;;5032261;28;20389;-77
2021/03/08 00:56:24;;;;;;;;;;;0.80;99.90;;;;;;5032339;28;20381;-77
2021/03/08 00:58:49;;;;;;;;;;;0.80;99.90;;;;;;5032147;28;19967;-78
2021/03/08 01:01:15;;;;;;;;;;;0.70;99.90;;;;;;5032833;28;19975;-78
2021/03/08 01:03:40;;;;;;;;;;;0.80;99.90;;;;;;5032549;28;19916;-77
2021/03/08 01:06:06;;;;;;;;;;;0.80;99.90;;;;;;5032167;28;20346;-78
2021/03/08 01:08:31;;;;;;;;;;;0.70;99.90;;;;;;5032290;28;19905;-78
2021/03/08 01:10:57;;;;;;;;;;;0.60;99.90;;;;;;5032041;28;19905;-78
2021/03/08 01:13:22;;;;;;;;;;;0.60;99.90;;;;;;5031420;28;19905;-78
2021/03/08 01:15:51;;;;;;;;;;;0.60;99.90;;;;;;5024194;28;20371;-77
2021/03/08 01:18:17;;;;;;;;;;;0.60;99.90;;;;;;5031833;28;19916;-78
2021/03/08 01:20:43;;;;;;;;;;;0.60;99.90;;;;;;5031941;28;19905;-79
2021/03/08 01:23:08;;;;;;;;;;;0.50;99.90;;;;;;5031943;28;19905;-78
2021/03/08 01:25:35;;;;;;;;;;;0.50;99.90;;;;;;5031771;28;20021;-79
2021/03/08 01:28:01;;;;;;;;;;;0.50;99.90;;;;;;5031756;28;19913;-78
2021/03/08 01:30:38;;;;;;;;;;;0.40;99.90;;;;;;5031858;28;19911;-78
2021/03/08 01:33:04;;;;;;;;;;;0.40;99.90;;;;;;5031798;28;19905;-78
2021/03/08 01:35:29;;;;;;;;;;;0.50;99.90;;;;;;5031318;28;20043;-78
2021/03/08 01:37:55;;;;;;;;;;;0.30;99.90;;;;;;5031450;28;19909;-78
2021/03/08 01:40:22;;;;;;;;;;;0.30;99.90;;;;;;5028537;28;19909;-78
2021/03/08 01:42:48;;;;;;;;;;;0.40;99.90;;;;;;5028867;28;19906;-78
2021/03/08 01:45:15;;;;;;;;;;;0.40;99.90;;;;;;5035217;28;19950;-78
2021/03/08 01:47:41;;;;;;;;;;;0.30;99.90;;;;;;5051460;28;19909;-79
2021/03/08 01:50:11;;;;;;;;;;;0.20;99.90;;;;;;5051170;28;19904;-79
2021/03/08 01:52:37;;;;;;;;;;;0.20;99.90;;;;;;5051197;28;20381;-78
2021/03/08 01:55:03;;;;;;;;;;;0.10;99.90;;;;;;5050998;28;19905;-79
2021/03/08 01:57:29;;;;;;;;;;;0.10;99.90;;;;;;5051267;28;20354;-78
2021/03/08 01:59:54;;;;;;;;;;;0.20;99.90;;;;;;5051022;28;20017;-78
2021/03/08 02:02:20;;;;;;;;;;;0.20;99.90;;;;;;5051322;28;19908;-78
2021/03/08 02:04:46;;;;;;;;;;;0.10;99.90;;;;;;5051087;28;19912;-78
2021/03/08 02:07:11;;;;;;;;;;;0.20;99.90;;;;;;5051003;28;19904;-80
2021/03/08 02:09:37;;;;;;;;;;;0.20;99.90;;;;;;5050580;28;19970;-78
2021/03/08 02:12:07;;;;;;;;;;;0.10;99.90;;;;;;5050906;28;19940;-79
2021/03/08 02:14:44;;;;;;;;;;;0.20;99.90;;;;;;5040516;28;19909;-78
2021/03/08 02:17:16;;;;;;;;;;;0.20;99.90;;;;;;5030562;28;19909;-78
2021/03/08 02:20:00;;;;;;;;;;;0.20;99.90;;;;;;5030522;28;20385;-78
2021/03/08 02:22:25;;;;;;;;;;;0.10;99.90;;;;;;5030917;28;20354;-78
2021/03/08 02:25:07;;;;;;;;;;;0.20;99.90;;;;;;5029648;28;19924;-78
2021/03/08 02:27:42;;;;;;;;;;;0.10;99.90;;;;;;5031139;28;19944;-78
2021/03/08 02:30:26;;;;;;;;;;;0.10;99.90;;;;;;5030614;28;19981;-78
2021/03/08 02:32:53;;;;;;;;;;;0.00;99.90;;;;;;5030659;28;20282;-78
2021/03/08 02:35:20;;;;;;;;;;;0.10;99.90;;;;;;5030343;28;19905;-78
2021/03/08 02:37:56;;;;;;;;;;;0.10;99.90;;;;;;5030498;28;19916;-77
2021/03/08 02:40:45;;;;;;;;;;;0.00;99.90;;;;;;5030276;28;19905;-78
2021/03/08 02:43:20;;;;;;;;;;;0.00;99.90;;;;;;5022479;28;19944;-78
2021/03/08 02:45:46;;;;;;;;;;;0.00;99.90;;;;;;5030430;28;19912;-77
2021/03/08 02:48:13;;;;;;;;;;;0.10;99.90;;;;;;5030537;28;20003;-78
2021/03/08 02:50:39;;;;;;;;;;;-0.10;99.90;;;;;;5030330;28;19905;-78
2021/03/08 02:53:06;;;;;;;;;;;-0.10;99.90;;;;;;5030394;28;19928;-78
2021/03/08 02:55:38;;;;;;;;;;;0.00;99.90;;;;;;5030176;28;19905;-79
2021/03/08 02:58:05;;;;;;;;;;;-0.10;99.90;;;;;;5030293;28;19917;-78
2021/03/08 03:00:31;;;;;;;;;;;;;;;;;;5023355;28;19920;-78
2021/03/08 03:02:57;;;;;;;;;;;-0.10;99.90;;;;;;5030362;28;19995;-78
2021/03/08 03:05:24;;;;;;;;;;;-0.20;99.90;;;;;;5029938;28;20351;-77
2021/03/08 03:07:51;;;;;;;;;;;-0.10;99.90;;;;;;5030361;28;19940;-78
2021/03/08 03:10:17;;;;;;;;;;;0.00;99.90;;;;;;5030421;28;19989;-79
2021/03/08 03:12:43;;;;;;;;;;;-0.10;99.90;;;;;;5030485;28;20350;-79
2021/03/08 03:15:09;;;;;;;;;;;-0.20;99.90;;;;;;5029831;28;19940;-79
2021/03/08 03:17:36;;;;;;;;;;;-0.20;99.90;;;;;;5030478;28;19909;-78
2021/03/08 03:20:03;;;;;;;;;;;-0.10;99.90;;;;;;5030312;28;19909;-79
2021/03/08 03:22:29;;;;;;;;;;;-0.20;99.90;;;;;;5030350;28;19905;-79
2021/03/08 03:24:57;;;;;;;;;;;-0.20;99.90;;;;;;5030392;28;19943;-79
2021/03/08 03:27:23;;;;;;;;;;;-0.20;99.90;;;;;;5030902;28;20359;-79
2021/03/08 03:29:50;;;;;;;;;;;-0.20;99.90;;;;;;5023391;28;19948;-78
2021/03/08 03:32:16;;;;;;;;;;;-0.30;99.90;;;;;;5033482;28;20294;-78
2021/03/08 03:34:43;;;;;;;;;;;-0.30;99.90;;;;;;5040714;28;20236;-78
2021/03/08 03:37:10;;;;;;;;;;;-0.30;99.90;;;;;;5046346;28;19919;-79
2021/03/08 03:39:35;;;;;;;;;;;-0.40;99.90;;;;;;5046311;28;19911;-79
2021/03/08 03:42:01;;;;;;;;;;;-0.60;99.90;;;;;;5037150;28;19960;-78
2021/03/08 03:44:26;;;;;;;;;;;-0.60;99.90;;;;;;5033833;28;20370;-78
2021/03/08 03:46:52;;;;;;;;;;;-0.60;99.90;;;;;;5034060;28;20409;-78
2021/03/08 03:49:18;;;;;;;;;;;-0.60;99.90;;;;;;5034130;28;19948;-78
2021/03/08 03:51:43;;;;;;;;;;;-0.70;99.90;;;;;;5033814;28;19912;-78
2021/03/08 03:54:10;;;;;;;;;;;-0.70;99.90;;;;;;5033387;28;20461;-78
2021/03/08 03:56:39;;;;;;;;;;;-0.80;99.90;;;;;;5033769;28;20003;-78
2021/03/08 03:59:23;;;;;;;;;;;-0.80;99.90;;;;;;5031331;28;19913;-78
2021/03/08 04:01:54;;;;;;;;;;;-0.80;99.90;;;;;;5047428;28;19909;-78
2021/03/08 04:04:21;;;;;;;;;;;-0.60;99.90;;;;;;5033142;28;19905;-78
2021/03/08 04:06:48;;;;;;;;;;;-0.60;99.90;;;;;;5033416;28;19905;-78
2021/03/08 04:09:16;;;;;;;;;;;-0.70;99.90;;;;;;5033296;28;20000;-78
2021/03/08 04:11:42;;;;;;;;;;;-0.80;99.90;;;;;;5033403;28;19913;-78
2021/03/08 04:14:09;;;;;;;;;;;-0.70;99.90;;;;;;5032894;28;19905;-78
2021/03/08 04:16:36;;;;;;;;;;;-0.80;99.90;;;;;;5032941;28;19905;-78
2021/03/08 04:19:02;;;;;;;;;;;-0.70;99.90;;;;;;5032977;28;19910;-78
2021/03/08 04:21:29;;;;;;;;;;;-0.70;99.90;;;;;;5033229;28;19928;-78
2021/03/08 04:23:55;;;;;;;;;;;-0.70;99.90;;;;;;5032794;28;19909;-78
2021/03/08 04:26:21;;;;;;;;;;;-0.80;99.90;;;;;;5032995;28;20381;-78
2021/03/08 04:28:47;;;;;;;;;;;-1.00;99.90;;;;;;5032595;28;19905;-78
2021/03/08 04:31:13;;;;;;;;;;;-1.00;99.90;;;;;;5029060;28;19916;-78
2021/03/08 04:33:40;;;;;;;;;;;-1.10;99.90;;;;;;5032819;28;19905;-78
2021/03/08 04:36:06;;;;;;;;;;;-1.10;99.90;;;;;;5033098;28;19909;-80
2021/03/08 04:38:32;;;;;;;;;;;-1.00;99.90;;;;;;5036503;28;20453;-80
2021/03/08 04:40:58;;;;;;;;;;;-1.00;99.90;;;;;;5035915;28;19952;-80
2021/03/08 04:43:24;;;;;;;;;;;-0.90;99.90;;;;;;5036536;28;19955;-80
2021/03/08 04:45:53;;;;;;;;;;;-0.80;99.90;;;;;;5033734;28;19913;-80
2021/03/08 04:48:18;;;;;;;;;;;-0.80;99.90;;;;;;5031821;28;19999;-80
2021/03/08 04:50:45;;;;;;;;;;;-0.90;99.90;;;;;;5032643;28;20347;-80
2021/03/08 04:53:12;;;;;;;;;;;-1.00;99.90;;;;;;5032840;28;19913;-79
2021/03/08 04:55:39;;;;;;;;;;;-1.10;99.90;;;;;;5032185;28;19905;-79
2021/03/08 04:58:05;;;;;;;;;;;-1.20;99.90;;;;;;5032311;28;19909;-80
2021/03/08 05:00:30;;;;;;;;;;;-1.20;99.90;;;;;;5031982;28;20448;-80
2021/03/08 05:02:56;;;;;;;;;;;-1.20;99.90;;;;;;5032520;28;19912;-80
2021/03/08 05:05:23;;;;;;;;;;;-1.30;99.90;;;;;;5032055;28;19906;-80
2021/03/08 05:07:51;;;;;;;;;;;-1.30;99.90;;;;;;5031923;28;19905;-80
2021/03/08 05:10:18;;;;;;;;;;;-1.20;99.90;;;;;;5031961;28;19928;-80
2021/03/08 05:12:44;;;;;;;;;;;-1.20;99.90;;;;;;5032247;28;19960;-80
2021/03/08 05:15:11;;;;;;;;;;;-1.30;99.90;;;;;;5031602;28;19948;-80
2021/03/08 05:17:37;;;;;;;;;;;-1.30;99.90;;;;;;5031839;28;20466;-80
2021/03/08 05:20:11;;;;;;;;;;;-1.40;99.90;;;;;;5031833;28;20113;-80
2021/03/08 05:22:37;;;;;;;;;;;-1.50;99.90;;;;;;5032208;28;20252;-80
2021/03/08 05:25:04;;;;;;;;;;;-1.50;99.90;;;;;;5033557;28;19952;-78
2021/03/08 05:27:30;;;;;;;;;;;-1.50;99.90;;;;;;5034146;28;19951;-79
2021/03/08 05:29:56;;;;;;;;;;;-1.50;99.90;;;;;;5034837;28;19909;-79
2021/03/08 05:32:24;;;;;;;;;;;-1.50;99.90;;;;;;5031776;28;20349;-79
2021/03/08 05:34:51;;;;;;;;;;;-1.50;99.90;;;;;;5030670;28;19906;-79
2021/03/08 05:37:20;;;;;;;;;;;-1.60;99.90;;;;;;5037123;28;19909;-79
2021/03/08 05:39:45;;;;;;;;;;;-1.60;99.90;;;;;;5044710;28;19911;-79
2021/03/08 05:42:12;;;;;;;;;;;-1.60;99.90;;;;;;5038541;28;19917;-79
2021/03/08 05:45:04;;;;;;;;;;;-1.70;99.90;;;;;;5031114;28;19905;-79
2021/03/08 05:47:50;;;;;;;;;;;-1.70;99.90;;;;;;5035422;28;19905;-80
2021/03/08 05:50:18;;;;;;;;;;;-1.70;99.90;;;;;;5029144;28;19905;-80
2021/03/08 05:53:00;;;;;;;;;;;-1.70;99.90;;;;;;5028855;28;19905;-79
2021/03/08 05:55:39;;;;;;;;;;;-1.70;99.90;;;;;;5029300;28;19928;-79
2021/03/08 05:58:37;;;;;;;;;;;-1.70;99.90;;;;;;5029877;28;20388;-79
2021/03/08 06:01:02;;;;;;;;;;;-1.70;99.90;;;;;;4998605;28;20377;-79
2021/03/08 06:03:31;;;;;;;;;;;-1.70;99.90;;;;;;5032694;28;19951;-80
2021/03/08 06:05:56;;;;;;;;;;;-1.70;99.90;;;;;;5037700;28;19905;-80
2021/03/08 06:08:41;;;;;;;;;;;-1.50;99.90;;;;;;5037050;28;19928;-80
2021/03/08 06:11:06;;;;;;;;;;;-1.30;99.90;;;;;;5029481;28;19904;-80
2021/03/08 06:13:52;;;;;;;;;;;-1.10;99.90;;;;;;5029444;28;19912;-79
2021/03/08 06:16:23;;;;;;;;;;;-0.90;99.90;;;;;;5022617;28;19905;-79
2021/03/08 06:18:49;;;;;;;;;;;-0.70;99.90;;;;;;5029460;28;19909;-81
2021/03/08 06:21:15;;;;;;;;;;;-0.60;99.90;;;;;;5029635;28;19955;-79
2021/03/08 06:23:42;;;;;;;;;;;-0.60;99.90;;;;;;5029460;28;20107;-79
2021/03/08 06:26:08;;;;;;;;;;;-0.60;99.90;;;;;;5029638;28;19905;-80
2021/03/08 06:28:34;;;;;;;;;;;-0.60;99.90;;;;;;5029089;28;19905;-80
2021/03/08 06:31:00;;;;;;;;;;;-0.50;99.90;;;;;;5029112;28;19905;-80
2021/03/08 06:33:25;;;;;;;;;;;-0.40;99.90;;;;;;5031511;28;19905;-80
2021/03/08 06:35:52;;;;;;;;;;;-0.30;99.90;;;;;;5043233;28;20285;-80
2021/03/08 06:38:18;;;;;;;;;;;-0.30;99.90;;;;;;5042226;28;19917;-81
2021/03/08 06:40:45;;;;;;;;;;;-0.10;99.90;;;;;;5039432;28;19907;-80
2021/03/08 06:43:10;;;;;;;;;;;0.00;99.90;;;;;;5049985;28;19905;-79
2021/03/08 06:45:36;;;;;;;;;;;0.00;99.90;;;;;;5052204;28;19905;-80
2021/03/08 06:48:01;;;;;;;;;;;0.10;99.90;;;;;;5041784;28;20429;-80
2021/03/08 06:50:27;;;;;;;;;;;0.20;99.90;;;;;;5027129;28;20414;-80
2021/03/08 06:52:52;;;;;;;;;;;0.10;99.90;;;;;;5031062;28;19956;-80
2021/03/08 06:55:21;;;;;;;;;;;0.30;99.90;;;;;;5041556;28;20360;-80
2021/03/08 06:57:47;;;;;;;;;;;0.50;99.90;;;;;;5035705;28;19913;-79
2021/03/08 07:00:13;;;;;;;;;;;0.40;99.90;;;;;;5038320;28;19916;-80
2021/03/08 07:02:42;;;;;;;;;;;0.40;99.90;;;;;;5034645;28;19925;-80
2021/03/08 07:05:08;;;;;;;;;;;0.50;99.90;;;;;;5045358;28;19904;-80
2021/03/08 07:07:46;;;;;;;;;;;0.60;99.90;;;;;;5050290;28;20350;-80
2021/03/08 07:10:15;;;;;;;;;;;0.70;99.90;;;;;;5037928;28;20014;-80
2021/03/08 07:12:47;;;;;;;;;;;0.80;99.90;;;;;;5034618;28;19948;-80
2021/03/08 07:15:13;;;;;;;;;;;1.00;99.90;;;;;;5033996;28;19905;-80
2021/03/08 07:17:38;;;;;;;;;;;1.30;99.90;;;;;;5035135;28;19919;-80
2021/03/08 07:20:05;;;;;;;14.98;5.60;;;;;;;;;;5034237;28;19905;-80
2021/03/08 07:22:54;;;;;;;8.23;4.90;;;2.30;99.90;;;;;;5034987;28;20033;-80
2021/03/08 07:25:26;;;;;;;;;;;4.60;99.90;;;;;;5035079;28;20391;-79
2021/03/08 07:27:57;;;;;;;6.75;4.25;;;5.40;99.90;;;;;;5034486;28;19936;-79
2021/03/08 07:30:26;;;;;;;8.98;5.63;;;5.90;99.90;;;;;;5033691;28;20475;-79
2021/03/08 07:32:54;;;;;;;10.38;5.28;;;6.20;99.90;;;;;;5034101;28;20084;-79
2021/03/08 07:35:35;;;;;;;7.50;4.95;;;6.20;99.90;;;;;;5033426;28;20025;-79
2021/03/08 07:38:02;;;;;;;7.68;5.18;;;5.90;99.90;;;;;;5037915;28;20025;-79
2021/03/08 07:40:28;;;;;;;11.18;5.30;;;6.40;99.90;;;;;;5043439;28;20048;-79
2021/03/08 07:42:54;;;;;;;11.65;5.95;;;6.50;99.90;;;;;;5039030;28;20057;-79
2021/03/08 07:45:22;;;;;;;8.90;5.68;;;6.20;99.90;;;;;;5044384;28;20021;-78
2021/03/08 07:48:11;;;;;;;13.82;5.88;;;6.50;99.90;;;;;;5045587;28;20021;-79
2021/03/08 07:50:37;;;;;;;7.63;5.07;;;6.90;99.90;;;;;;5053667;28;20021;-79
2021/03/08 07:53:29;;;;;;;10.93;6.40;;;6.90;99.90;;;;;;5053481;28;20075;-80
2021/03/08 07:55:56;;;;;;;9.45;5.32;;;7.80;99.90;;;;;;5044604;28;20026;-80
2021/03/08 07:58:25;;;;;;;8.75;4.68;;;8.70;99.90;;;;;;5033354;28;20033;-79
2021/03/08 08:00:50;;;;;;;9.93;5.60;;;9.30;99.30;;;;;;5066156;28;20099;-79
2021/03/08 08:03:16;;;;;;;7.53;4.95;;;11.00;93.90;;;;;;5066211;28;20504;-80
2021/03/08 08:05:49;;;;;;;8.50;4.97;;;12.40;89.00;;;;;;5065774;28;20022;-81
2021/03/08 08:08:15;;;;;;;6.72;4.32;;;12.70;78.50;;;;;;5036907;28;20029;-80
2021/03/08 08:10:42;;;;;;;5.18;3.88;;;13.40;72.40;;;;;;5034139;28;20040;-79
2021/03/08 08:13:10;;;;;;;;;;;12.40;71.90;;;;;;5034252;28;20025;-79
2021/03/08 08:15:40;;;;;;;7.80;4.85;;;12.50;73.80;;;;;;5028820;28;19910;-79
2021/03/08 08:18:08;;;;;;;6.78;4.32;;;13.40;65.00;;;;;;5033331;28;20430;-79
2021/03/08 08:20:34;;;;;;;;;;;13.50;65.70;;;;;;5026296;28;20025;-78
2021/03/08 08:23:01;;;;;;;6.47;4.30;;;14.40;62.50;;;;;;5015312;28;19905;-81
2021/03/08 08:25:28;;;;;;;5.50;4.47;;;15.50;59.80;;;;;;5017517;28;20042;-82
2021/03/08 08:27:54;;;;;;;5.80;4.78;;;16.80;53.50;;;;;;5035185;28;20487;-80
2021/03/08 08:30:24;;;;;;;8.88;5.25;;;15.90;53.50;;;;;;5017490;28;20033;-80
2021/03/08 08:32:51;;;;;;;5.57;3.90;;;15.30;54.50;;;;;;5025609;28;20026;-79
2021/03/08 08:35:22;;;;;;;6.88;4.32;;;15.00;55.70;;;;;;5037837;28;20036;-81
2021/03/08 08:38:06;;;;;;;6.82;4.95;;;16.00;54.50;;;;;;5040082;28;20021;-80
2021/03/08 08:40:37;;;;;;;6.35;4.13;;;16.20;52.90;;;;;;5037534;28;20025;-80
2021/03/08 08:43:15;;;;;;;7.35;4.30;;;16.70;51.80;;;;;;5039411;28;20018;-80
2021/03/08 08:45:52;;;;;;;7.55;4.82;;;18.00;49.50;;;;;;5047286;28;20140;-79
2021/03/08 08:48:21;;;;;;;5.47;4.43;;;18.70;47.60;;;;;;5036739;28;20514;-81
2021/03/08 08:50:55;;;;;;;8.30;5.07;;;19.60;48.10;;;;;;5045342;28;20029;-80
2021/03/08 08:53:39;;;;;;;6.38;4.03;;;20.10;45.50;;;;;;5047963;28;20394;-80
2021/03/08 08:56:06;;;;;;;4.65;3.85;;;21.00;44.40;;;;;;5046315;28;20017;-81
2021/03/08 08:58:50;;;;;;;6.63;3.38;;;21.10;42.80;;;;;;5060081;28;20044;-80
2021/03/08 09:01:31;;;;;;;4.80;3.65;;;20.90;42.90;;;;;;5052437;28;20079;-80
2021/03/08 09:03:59;;;;;;;;;;;20.70;43.90;;;;;;5029067;28;20396;-79
2021/03/08 09:06:38;;;;;;;;;;;20.20;42.20;;;;;;5045434;28;19904;-80
2021/03/08 09:09:04;;;;;;;5.47;3.60;;;;;;;;;;5053914;28;19905;-79
2021/03/08 09:11:42;;;;;;;6.20;4.23;;;;;;;;;;5053416;28;20025;-80
2021/03/08 09:14:47;;;;;;;6.45;4.57;;;;;;;;;;5053324;28;20027;-81
2021/03/08 09:17:21;;;;;;;8.77;4.88;;;;;;;;;;5023689;28;20045;-81
2021/03/08 09:19:47;;;;;;;;;;;;;;;;;;5053769;28;20103;-81
2021/03/08 09:22:22;;;;;;;6.47;4.72;;;;;;;;;;5053762;28;19912;-80
2021/03/08 09:24:56;;;;;;;4.80;4.10;;;;;;;;;;5058497;28;20394;-79
2021/03/08 09:27:26;;;;;;;6.38;4.75;;;;;;;;;;5058920;28;20033;-80
2021/03/08 09:29:52;;;;;;;6.78;5.00;;;;;;;;;;5056335;28;20509;-79
2021/03/08 09:32:19;;;;;;;6.00;4.75;;;;;;;;;;5058436;28;20029;-82
2021/03/08 09:34:45;;;;;;;5.85;4.22;;;;;;;;;;5057853;28;20028;-82
2021/03/08 09:37:12;;;;;;;10.52;4.72;;;;;;;;;;5058601;28;20033;-82
2021/03/08 09:39:48;;;;;;;7.47;4.32;;;;;;;;;;5061907;28;20021;-81
2021/03/08 09:42:14;;;;;;;6.18;4.35;;;;;;;;;;5060606;28;20394;-78
2021/03/08 09:44:41;;;;;;;4.65;3.72;;;;;;;;;;5058138;28;20485;-80
2021/03/08 09:47:07;;;;;;;8.18;4.75;;;;;;;;;;5054432;28;20561;-80
2021/03/08 09:50:05;;;;;;;5.30;4.27;;;;;;;;;;5055092;28;20363;-80
2021/03/08 09:52:35;;;;;;;4.55;3.78;;;;;;;;;;5034375;28;20037;-81
2021/03/08 09:55:01;;;;;;;6.35;4.70;;;;;;;;;;5054865;28;20120;-79
2021/03/08 09:57:31;;;;;;;4.45;3.88;;;;;;;;;;5054927;28;20025;-79
2021/03/08 09:59:57;;;;;;;4.25;3.40;;;;;;;;;;5054792;28;20037;-79
2021/03/08 10:02:23;;;;;;;;;;;;;;;;;;5053467;28;20043;-79
2021/03/08 10:04:54;;;;;;;3.67;3.35;;;;;;;;;;5053084;28;19904;-79
2021/03/08 10:07:20;;;;;;;5.38;3.58;;;;;;;;;;5052351;28;20036;-79
2021/03/08 10:09:46;;;;;;;5.10;3.35;;;;;;;;;;5051713;28;20040;-79
2021/03/08 10:12:12;;;;;;;6.07;3.93;;;;;;;;;;5054402;28;20127;-78
2021/03/08 10:14:38;;;;;;;5.60;4.15;;;;;;;;;;5052869;28;20021;-81
2021/03/08 10:17:09;;;;;;;6.50;3.77;;;;;;;;;;5053349;28;20386;-81
2021/03/08 10:19:35;;;;;;;4.68;3.50;;;;;;;;;;5051708;28;20429;-78
2021/03/08 10:22:01;;;;;;;3.57;2.47;;;;;;;;;;5051270;28;20048;-81
2021/03/08 10:24:34;;;;;;;2.95;2.30;;;;;;;;;;5051406;28;20021;-80
2021/03/08 10:27:01;;;;;;;2.38;1.90;;;;;;;;;;5052003;28;20021;-81
2021/03/08 10:29:27;;;;;;;4.22;3.05;;;;;;;;;;5051239;28;20032;-81
2021/03/08 10:31:53;;;;;;;3.63;2.60;;;;;;;;;;5050500;28;20746;-80
2021/03/08 10:34:21;;;;;;;4.45;3.03;;;;;;;;;;5050226;28;20064;-80
2021/03/08 10:36:48;;;;;;;3.85;2.25;;;;;;;;;;5038654;28;20125;-80
2021/03/08 10:39:14;;;;;;;4.88;2.70;;;;;;;;;;5029186;28;20031;-80
2021/03/08 10:41:43;;;;;;;4.40;2.53;;;;;;;;;;5041880;28;20079;-81
2021/03/08 10:44:09;;;;;;;3.15;2.22;;;;;;;;;;5037439;28;20057;-81
2021/03/08 10:46:37;;;;;;;4.70;2.35;;;;;;;;;;5031775;28;20025;-82
2021/03/08 10:49:04;;;;;;;4.60;2.65;;;;;;;;;;5032446;28;20430;-81
2021/03/08 10:51:30;;;;;;;;;;;;;;;;;;5033224;28;20192;-81
2021/03/08 10:53:56;;;;;;;;;;;;;;;;;;5032393;28;20003;-80
2021/03/08 10:56:23;;;;;;;3.10;2.57;;;;;;;;;;5033139;28;20317;-81
2021/03/08 10:58:49;;;;;;;4.60;3.40;;;;;;;;;;5031954;28;20502;-79
2021/03/08 11:01:15;;;;;;;;;;;;;;;;;;5032132;28;20052;-81
2021/03/08 11:03:41;;;;;;;4.70;3.30;;;;;;;;;;5031921;28;19905;-81
2021/03/08 11:06:09;;;;;;;5.07;2.95;;;;;;;;;;5031406;28;20014;-81
2021/03/08 11:08:38;;;;;;;4.43;3.38;;;;;;;;;;5031560;28;20562;-79
2021/03/08 11:11:16;;;;;;;5.00;3.20;;;;;;;;;;5032196;28;20108;-81
2021/03/08 11:13:42;;;;;;;5.75;3.65;;;;;;;;;;5031999;28;20029;-81
2021/03/08 11:16:09;;;;;;;4.55;2.83;;;;;;;;;;5031370;28;20048;-81
2021/03/08 11:18:35;;;;;;;3.92;3.05;;;;;;;;;;5032915;28;20109;-81
2021/03/08 11:21:01;;;;;;;;;;;;;;;;;;5033563;28;20462;-81
2021/03/08 11:23:27;;;;;;;;;;;;;;;;;;5034542;28;19905;-81
2021/03/08 11:25:53;;;;;;;;;;;;;;;;;;5033432;28;19932;-80
2021/03/08 11:28:19;;;;;;;;;;;;;;;;;;5032084;28;19905;-80
2021/03/08 11:30:45;;;;;;;;;;;;;;;;;;5031111;28;19927;-79
2021/03/08 11:33:11;;;;;;;;;;;;;;;;;;5031092;28;19905;-80
2021/03/08 11:35:37;;;;;;;;;;;;;;;;;;5030904;28;19949;-81
2021/03/08 11:38:03;;;;;;;;;;;;;;;;;;5030960;28;19998;-81
2021/03/08 11:40:29;;;;;;;;;;;;;;;;;;5030242;28;19905;-80
2021/03/08 11:42:54;;;;;;;;;;;;;;;;;;5029939;28;20350;-80
2021/03/08 11:45:20;;;;;;;;;;;;;;;;;;5036920;28;19905;-80
2021/03/08 11:47:46;;;;;;;;;;;;;;;;;;5041343;28;19959;-80
2021/03/08 11:50:12;;;;;;;;;;;;;;;;;;5048753;28;20376;-81
2021/03/08 11:52:38;;;;;;;;;;;;;;;;;;5049441;28;19995;-80
2021/03/08 11:55:04;;;;;;;;;;;;;;;;;;5043341;28;21278;-80
2021/03/08 11:57:30;;;;;;;;;;;;;;;;;;5046718;28;19909;-80
2021/03/08 11:59:56;;;;;;;;;;;;;;;;;;5054236;28;19913;-80
2021/03/08 12:02:22;;;;;;;;;;;;;;;;;;5055980;28;19908;-81
2021/03/08 12:04:48;;;;;;;;;;;;;;;;;;5045694;28;20314;-79
2021/03/08 12:07:14;;;;;;;;;;;;;;;;;;5057957;28;19904;-79
2021/03/08 12:09:40;;;;;;;;;;;;;;;;;;5057048;28;19911;-79
2021/03/08 12:12:06;;;;;;;;;;;;;;;;;;5053152;28;19909;-79
2021/03/08 12:14:32;;;;;;;;;;;;;;;;;;5051652;28;19955;-81
2021/03/08 12:17:00;;;;;;;;;;;;;;;;;;5043409;28;19909;-79
2021/03/08 12:19:26;;;;;;;;;;;;;;;;;;5042775;28;19916;-79
2021/03/08 12:21:52;;;;;;;;;;;;;;;;;;5040423;28;19913;-79
2021/03/08 12:24:18;;;;;;;;;;;;;;;;;;5051286;28;20262;-82
2021/03/08 12:26:43;;;;;;;;;;;;;;;;;;5040535;28;19905;-80
2021/03/08 12:29:09;;;;;;;;;;;;;;;;;;5033169;28;19905;-81
2021/03/08 12:31:35;;;;;;;;;;;;;;;;;;5047743;28;19912;-80
2021/03/08 12:34:01;;;;;;;;;;;;;;;;;;5050209;28;19982;-81
2021/03/08 12:36:27;;;;;;;;;;;;;;;;;;5052311;28;19905;-80
2021/03/08 12:38:53;;;;;;;;;;;;;;;;;;5037076;28;19919;-81
2021/03/08 12:41:19;;;;;;;;;;;;;;;;;;5039648;28;19915;-79
2021/03/08 12:43:45;;;;;;;;;;;;;;;;;;5033278;28;19909;-78
2021/03/08 12:46:11;;;;;;;;;;;;;;;;;;5043796;28;19905;-79
2021/03/08 12:48:37;;;;;;;;;;;;;;;;;;5034042;28;20039;-80
2021/03/08 12:51:03;;;;;;;;;;;;;;;;;;5031890;28;20293;-78
2021/03/08 12:53:29;;;;;;;;;;;;;;;;;;5024144;28;19919;-79
2021/03/08 12:55:54;;;;;;;;;;;;;;;;;;5029383;28;19916;-78
2021/03/08 12:58:20;;;;;;;;;;;;;;;;;;5031750;28;20268;-78
2021/03/08 13:00:46;;;;;;;;;;;;;;;;;;5036666;28;20381;-79
2021/03/08 13:03:12;;;;;;;;;;;;;;;;;;5041167;28;20378;-79
2021/03/08 13:05:38;;;;;;;;;;;;;;;;;;5040865;28;19996;-77
2021/03/08 13:08:04;;;;;;;;;;;;;;;;;;5032174;28;19909;-80
2021/03/08 13:10:31;;;;;;;;;;;;;;;;;;5032486;28;19905;-78
2021/03/08 13:12:57;;;;;;;;;;;;;;;;;;5032588;28;20278;-78
2021/03/08 13:15:23;;;;;;;;;;;;;;;;;;5019507;28;19956;-78
2021/03/08 13:17:49;;;;;;;;;;;;;;;;;;5028654;28;19910;-77
2021/03/08 13:20:18;;;;;;;;;;;;;;;;;;5028386;28;20325;-78
2021/03/08 13:22:44;;;;;;;;;;;;;;;;;;5028560;28;19909;-77
2021/03/08 13:25:09;;;;;;;;;;;;;;;;;;5037866;28;19936;-79
2021/03/08 13:27:35;;;;;;;;;;;;;;;;;;5025544;28;19905;-78
2021/03/08 13:30:01;;;;;;;;;;;;;;;;;;5032068;28;20512;-78
2021/03/08 13:32:27;;;;;;;;;;;;;;;;;;5031840;28;19952;-77
2021/03/08 13:34:57;;;;;;;;;;;;;;;;;;5038975;28;20000;-78
2021/03/08 13:37:23;;;;;;;;;;;;;;;;;;5031279;28;19959;-78
2021/03/08 13:39:49;;;;;;;;;;;;;;;;;;5031147;28;19909;-78
2021/03/08 13:42:15;;;;;;;;;;;;;;;;;;5031401;28;19952;-78
2021/03/08 13:44:41;;;;;;;;;;;;;;;;;;5030973;28;19912;-78
2021/03/08 13:47:06;;;;;;;;;;;;;;;;;;5031282;28;19905;-78
2021/03/08 13:49:32;;;;;;;;;;;;;;;;;;5030997;28;19959;-78
2021/03/08 13:51:58;;;;;;;;;;;;;;;;;;5030976;28;19940;-78
2021/03/08 13:54:24;;;;;;;;;;;;;;;;;;5030826;28;19920;-78
2021/03/08 13:56:50;;;;;;;;;;;;;;;;;;5032420;28;19905;-78
2021/03/08 13:59:17;;;;;;;;;;;;;;;;;;5030578;28;19913;-79
2021/03/08 14:01:42;;;;;;;;;;;;;;;;;;5031239;28;19909;-78
2021/03/08 14:04:08;;;;;;;;;;;;;;;;;;5030874;28;19912;-78
2021/03/08 14:06:34;;;;;;;;;;;;;;;;;;5030889;28;20313;-78
2021/03/08 14:09:00;;;;;;;;;;;;;;;;;;5030895;28;19963;-79
2021/03/08 14:11:26;;;;;;;;;;;;;;;;;;5030800;28;19959;-78
2021/03/08 14:13:52;;;;;;;;;;;;;;;;;;5030726;28;19909;-78
2021/03/08 14:16:18;;;;;;;;;;;;;;;;;;5030767;28;20374;-78
2021/03/08 14:18:44;;;;;;;;;;;;;;;;;;5030505;28;19999;-78
2021/03/08 14:21:10;;;;;;;;;;;;;;;;;;5032043;28;19909;-78
2021/03/08 14:23:36;;;;;;;;;;;;;;;;;;5030799;28;19947;-78
2021/03/08 14:26:01;;;;;;;;;;;;;;;;;;5025684;28;19972;-79
2021/03/08 14:28:27;;;;;;;;;;;;;;;;;;5012296;28;19906;-79
2021/03/08 14:30:56;;;;;;;;;;;;;;;;;;5014640;28;19909;-79
2021/03/08 14:33:22;;;;;;;;;;;;;;;;;;5022383;28;19915;-78
2021/03/08 14:35:48;;;;;;;;;;;;;;;;;;5036025;28;19905;-78
2021/03/08 14:38:14;;;;;;;;;;;;;;;;;;5030473;28;19909;-78
2021/03/08 14:40:40;;;;;;;;;;;;;;;;;;5028690;28;20318;-78
2021/03/08 14:43:06;;;;;;;;;;;;;;;;;;5026761;28;19913;-77
2021/03/08 14:45:32;;;;;;;;;;;;;;;;;;5026425;28;19929;-78
2021/03/08 14:47:57;;;;;;;;;;;20.60;41.60;;;;;;5038342;28;19950;-78
2021/03/08 14:50:23;;;;;;;;;;;9.70;83.80;;;;;;5029734;28;19956;-78